Time;durP1;ratioP1;P1;durP2;ratioP2;P2;SDS_P1;SDS_P2;PMS_P1;PMS_P2;Temp;Humidity;BMP_temperature;BMP_pressure;BME280_temperature;BME280_humidity;BME280_pressure;Samples;Min_cycle;Max_cycle;Signal;HPM_P1;HPM_P2
2020/12/20 00:01:40;;;;;;;30.08;28.08;;;8.70;72.60;;;;;;5013008;28;20731;-78
2020/12/20 00:04:07;;;;;;;27.90;26.27;;;8.60;72.10;;;;;;5012719;28;20190;-78
2020/12/20 00:06:39;;;;;;;29.13;27.33;;;8.70;71.70;;;;;;5012801;28;20246;-78
2020/12/20 00:09:10;;;;;;;28.50;26.67;;;8.60;71.50;;;;;;5012756;28;20222;-78
2020/12/20 00:11:41;;;;;;;28.42;26.52;;;8.60;71.40;;;;;;5012905;28;20206;-78
2020/12/20 00:16:48;;;;;;;27.27;25.58;;;8.60;71.20;;;;;;5009632;28;20214;-78
2020/12/20 00:19:15;;;;;;;28.02;26.23;;;8.60;71.60;;;;;;5017720;28;20221;-78
2020/12/20 00:21:42;;;;;;;29.10;26.98;;;8.60;71.50;;;;;;5012886;28;20202;-78
2020/12/20 00:24:10;;;;;;;28.90;26.90;;;8.50;71.80;;;;;;5012696;28;20205;-78
2020/12/20 00:26:36;;;;;;;29.10;26.90;;;8.50;71.70;;;;;;5012516;28;20627;-78
2020/12/20 00:29:04;;;;;;;27.42;25.63;;;8.40;72.00;;;;;;5012583;28;20221;-78
2020/12/20 00:31:30;;;;;;;27.98;26.02;;;8.40;71.90;;;;;;5012846;28;20225;-78
2020/12/20 00:33:57;;;;;;;29.58;27.55;;;8.40;73.30;;;;;;5012703;28;20758;-78
2020/12/20 00:36:23;;;;;;;28.08;26.20;;;8.40;73.60;;;;;;5012186;28;20305;-78
2020/12/20 00:38:50;;;;;;;28.05;26.05;;;8.40;72.90;;;;;;5012008;28;20201;-78
2020/12/20 00:41:17;;;;;;;28.75;26.77;;;8.50;72.00;;;;;;5012339;28;20198;-78
2020/12/20 00:43:43;;;;;;;28.42;26.42;;;8.50;72.10;;;;;;5012639;28;20201;-78
2020/12/20 00:46:09;;;;;;;28.00;26.10;;;8.50;71.80;;;;;;5012327;28;20218;-78
2020/12/20 00:48:36;;;;;;;28.30;26.40;;;8.60;72.00;;;;;;5012350;28;20260;-78
2020/12/20 00:51:05;;;;;;;28.75;26.45;;;8.60;72.20;;;;;;5013432;28;20200;-78
2020/12/20 00:53:31;;;;;;;28.65;26.60;;;8.60;72.20;;;;;;5012609;28;20292;-78
2020/12/20 00:55:59;;;;;;;27.45;25.58;;;8.60;71.90;;;;;;5013837;28;20226;-78
2020/12/20 00:58:25;;;;;;;28.05;26.15;;;8.60;71.80;;;;;;5015723;28;20619;-78
2020/12/20 01:00:51;;;;;;;28.77;26.85;;;8.50;72.10;;;;;;5015985;28;20659;-78
2020/12/20 01:03:18;;;;;;;28.10;26.40;;;8.50;72.30;;;;;;5015970;28;20240;-78
2020/12/20 01:05:45;;;;;;;27.42;25.73;;;8.50;72.50;;;;;;5015602;28;20209;-78
2020/12/20 01:08:12;;;;;;;28.48;26.65;;;8.40;77.50;;;;;;5015500;28;20218;-78
2020/12/20 01:10:38;;;;;;;27.08;25.27;;;8.50;73.70;;;;;;5015827;28;20210;-78
2020/12/20 01:13:05;;;;;;;26.88;25.13;;;8.50;73.00;;;;;;5015894;28;20194;-78
2020/12/20 01:15:32;;;;;;;28.25;26.25;;;8.50;72.80;;;;;;5015385;28;20575;-78
2020/12/20 01:17:59;;;;;;;28.48;26.73;;;8.50;73.10;;;;;;5015776;28;20240;-78
2020/12/20 01:20:26;;;;;;;28.35;26.50;;;8.50;73.80;;;;;;5015529;28;20198;-78
2020/12/20 01:22:52;;;;;;;28.27;26.05;;;8.40;74.80;;;;;;5015623;28;20273;-78
2020/12/20 01:25:18;;;;;;;26.88;25.05;;;8.40;74.40;;;;;;5015861;28;20275;-78
2020/12/20 01:27:45;;;;;;;28.80;26.90;;;8.40;73.80;;;;;;5015005;28;20225;-78
2020/12/20 01:30:12;;;;;;;28.02;25.77;;;8.50;73.30;;;;;;5015549;28;20754;-78
2020/12/20 01:32:39;;;;;;;29.45;27.45;;;8.40;73.60;;;;;;5015429;28;20202;-78
2020/12/20 01:35:06;;;;;;;27.00;24.98;;;8.40;73.80;;;;;;5015038;28;20208;-78
2020/12/20 01:37:32;;;;;;;29.42;27.23;;;8.30;74.90;;;;;;5015467;28;20202;-78
2020/12/20 01:39:59;;;;;;;28.05;26.30;;;8.30;76.00;;;;;;5014967;28;20664;-78
2020/12/20 01:42:25;;;;;;;28.92;26.75;;;8.30;74.80;;;;;;5015262;28;20203;-78
2020/12/20 01:44:51;;;;;;;28.48;26.58;;;8.40;74.50;;;;;;5015247;28;20202;-79
2020/12/20 01:47:19;;;;;;;28.90;27.10;;;8.40;74.50;;;;;;5014977;28;20229;-78
2020/12/20 01:49:46;;;;;;;27.85;26.15;;;8.40;74.00;;;;;;5014967;28;20190;-78
2020/12/20 01:52:13;;;;;;;29.77;27.67;;;8.50;73.60;;;;;;5015166;28;20208;-78
2020/12/20 01:54:45;;;;;;;29.27;27.30;;;8.60;73.70;;;;;;5015120;28;20202;-78
2020/12/20 01:57:11;;;;;;;28.73;26.63;;;8.60;73.70;;;;;;5014924;28;20217;-78
2020/12/20 01:59:38;;;;;;;29.52;27.42;;;8.60;74.40;;;;;;5014619;28;20194;-78
2020/12/20 02:02:04;;;;;;;29.15;27.15;;;8.60;73.50;;;;;;5014886;28;20497;-77
2020/12/20 02:04:32;;;;;;;28.08;26.27;;;8.70;73.50;;;;;;5014803;28;20658;-78
2020/12/20 02:06:58;;;;;;;28.05;26.15;;;8.60;73.80;;;;;;5013809;28;20252;-78
2020/12/20 02:09:24;;;;;;;27.70;25.75;;;8.60;74.10;;;;;;5014336;28;20548;-78
2020/12/20 02:11:51;;;;;;;27.48;25.55;;;8.60;74.60;;;;;;5014955;28;20194;-78
2020/12/20 02:14:17;;;;;;;28.20;26.40;;;8.60;74.60;;;;;;5019694;28;20210;-78
2020/12/20 02:16:44;;;;;;;27.38;25.75;;;8.60;74.70;;;;;;5014565;28;20259;-78
2020/12/20 02:19:11;;;;;;;27.15;25.35;;;8.60;74.60;;;;;;5014411;28;20194;-78
2020/12/20 02:21:38;;;;;;;26.60;24.98;;;8.70;74.50;;;;;;5014631;28;20202;-78
2020/12/20 02:24:04;;;;;;;27.17;25.38;;;8.70;74.60;;;;;;5014567;28;20204;-78
2020/12/20 02:26:31;;;;;;;29.02;27.08;;;8.60;74.70;;;;;;5014136;28;20214;-78
2020/12/20 02:28:57;;;;;;;27.42;25.58;;;8.60;75.80;;;;;;5014100;28;20222;-78
2020/12/20 02:31:25;;;;;;;27.08;25.48;;;8.60;75.40;;;;;;5014297;28;20198;-78
2020/12/20 02:33:52;;;;;;;27.02;25.38;;;8.70;74.80;;;;;;5014353;28;20289;-78
2020/12/20 02:36:19;;;;;;;29.10;26.90;;;8.70;74.50;;;;;;5013515;28;20222;-78
2020/12/20 02:38:47;;;;;;;29.02;26.63;;;8.80;74.10;;;;;;5016949;28;20197;-78
2020/12/20 02:41:15;;;;;;;27.20;25.50;;;8.80;74.20;;;;;;5020998;28;20224;-78
2020/12/20 02:43:42;;;;;;;26.70;25.10;;;8.80;74.00;;;;;;5018820;28;20285;-78
2020/12/20 02:46:08;;;;;;;25.98;24.38;;;8.90;73.90;;;;;;5015149;28;20241;-78
2020/12/20 02:48:34;;;;;;;26.92;25.20;;;8.90;73.30;;;;;;5014213;28;20721;-78
2020/12/20 02:51:00;;;;;;;28.38;26.35;;;8.90;73.30;;;;;;5014025;28;20202;-78
2020/12/20 02:53:27;;;;;;;28.50;26.50;;;9.00;73.30;;;;;;5013864;28;20190;-78
2020/12/20 02:55:54;;;;;;;27.00;25.20;;;9.00;72.90;;;;;;5013639;28;20221;-78
2020/12/20 02:58:20;;;;;;;27.65;25.88;;;8.90;72.90;;;;;;5013762;28;20190;-78
2020/12/20 03:00:47;;;;;;;27.52;25.70;;;8.90;73.20;;;;;;5013939;28;20285;-78
2020/12/20 03:03:13;;;;;;;27.90;26.10;;;8.90;73.40;;;;;;5013669;28;20563;-78
2020/12/20 03:05:39;;;;;;;26.92;25.33;;;8.90;73.30;;;;;;5013394;28;20301;-78
2020/12/20 03:08:06;;;;;;;27.65;25.83;;;8.90;72.80;;;;;;5013628;28;20218;-78
2020/12/20 03:10:32;;;;;;;26.52;24.83;;;8.80;73.00;;;;;;5014080;28;20660;-78
2020/12/20 03:13:00;;;;;;;28.08;25.85;;;8.80;73.00;;;;;;5013883;28;20196;-78
2020/12/20 03:15:26;;;;;;;28.40;26.48;;;8.80;72.80;;;;;;5013468;28;20279;-78
2020/12/20 03:17:53;;;;;;;26.70;24.95;;;8.80;72.80;;;;;;5013631;28;20194;-78
2020/12/20 03:20:19;;;;;;;27.08;25.27;;;8.80;72.90;;;;;;5013266;28;20197;-78
2020/12/20 03:22:45;;;;;;;28.42;26.52;;;8.80;73.20;;;;;;5013423;28;20198;-78
2020/12/20 03:25:12;;;;;;;28.00;26.33;;;8.80;72.60;;;;;;5013325;28;20194;-78
2020/12/20 03:27:38;;;;;;;27.08;25.42;;;8.80;72.40;;;;;;5013274;28;20209;-78
2020/12/20 03:30:06;;;;;;;27.02;25.23;;;8.80;72.40;;;;;;5013188;28;20202;-78
2020/12/20 03:32:32;;;;;;;27.30;25.67;;;8.70;72.60;;;;;;5013501;28;20205;-78
2020/12/20 03:34:59;;;;;;;27.73;26.02;;;8.70;72.80;;;;;;5012856;28;20194;-78
2020/12/20 03:37:26;;;;;;;27.27;25.55;;;8.60;74.50;;;;;;5013322;28;20193;-78
2020/12/20 03:39:53;;;;;;;28.00;26.20;;;8.70;73.10;;;;;;5013181;28;20665;-78
2020/12/20 03:42:19;;;;;;;28.17;26.40;;;8.70;72.80;;;;;;5012632;28;20197;-78
2020/12/20 03:44:45;;;;;;;28.23;26.38;;;8.70;72.70;;;;;;5012965;28;20197;-78
2020/12/20 03:47:12;;;;;;;27.38;25.67;;;8.80;72.70;;;;;;5012974;28;20221;-78
2020/12/20 03:49:39;;;;;;;28.38;26.45;;;8.70;73.00;;;;;;5013006;28;20217;-78
2020/12/20 03:52:05;;;;;;;26.83;25.13;;;8.60;74.70;;;;;;5012883;28;20221;-78
2020/12/20 03:54:31;;;;;;;28.05;26.30;;;8.60;74.80;;;;;;5013156;28;20685;-78
2020/12/20 03:56:58;;;;;;;28.65;26.75;;;8.50;74.20;;;;;;5012776;28;20225;-78
2020/12/20 03:59:24;;;;;;;28.15;26.40;;;8.50;74.30;;;;;;5012865;28;20297;-78
2020/12/20 04:01:50;;;;;;;28.35;26.60;;;8.50;74.10;;;;;;5012773;28;20663;-78
2020/12/20 04:04:18;;;;;;;28.50;26.65;;;8.50;74.80;;;;;;5013166;28;20284;-78
2020/12/20 04:06:44;;;;;;;28.63;26.58;;;8.50;75.00;;;;;;5012617;28;20590;-78
2020/12/20 04:09:10;;;;;;;27.75;25.95;;;8.50;75.30;;;;;;5013016;28;20300;-78
2020/12/20 04:11:37;;;;;;;28.05;26.13;;;8.40;77.20;;;;;;5019399;28;20274;-78
2020/12/20 04:14:03;;;;;;;28.70;26.80;;;8.50;75.90;;;;;;5015887;28;20220;-78
2020/12/20 04:16:29;;;;;;;27.50;25.70;;;8.50;75.20;;;;;;5013298;28;20225;-78
2020/12/20 04:18:56;;;;;;;26.83;25.23;;;8.50;74.70;;;;;;5012997;28;20252;-78
2020/12/20 04:21:23;;;;;;;28.88;26.98;;;8.50;76.20;;;;;;5012729;28;20204;-78
2020/12/20 04:23:49;;;;;;;28.25;26.55;;;8.40;75.80;;;;;;5012175;28;20277;-78
2020/12/20 04:26:15;;;;;;;28.08;26.15;;;8.40;75.90;;;;;;5012698;28;20213;-78
2020/12/20 04:28:42;;;;;;;27.95;26.25;;;8.40;75.10;;;;;;5012579;28;20221;-78
2020/12/20 04:31:08;;;;;;;28.25;26.23;;;8.50;74.90;;;;;;5014558;28;20198;-78
2020/12/20 04:33:34;;;;;;;28.92;27.02;;;8.50;75.00;;;;;;5016372;28;20195;-78
2020/12/20 04:36:01;;;;;;;28.10;26.40;;;8.40;75.10;;;;;;5015797;28;20300;-78
2020/12/20 04:38:28;;;;;;;29.30;27.17;;;8.40;76.00;;;;;;5016435;28;20237;-78
2020/12/20 04:40:54;;;;;;;27.90;26.20;;;8.30;77.20;;;;;;5016373;28;20559;-78
2020/12/20 04:43:22;;;;;;;28.15;26.30;;;8.30;78.40;;;;;;5016295;28;20190;-78
2020/12/20 04:45:53;;;;;;;29.40;27.35;;;8.20;77.50;;;;;;5016235;28;20220;-78
2020/12/20 04:48:20;;;;;;;28.80;26.92;;;8.20;77.00;;;;;;5016224;28;20272;-78
2020/12/20 04:50:47;;;;;;;28.48;26.58;;;8.20;76.70;;;;;;5016363;28;20201;-78
2020/12/20 04:53:14;;;;;;;27.48;25.67;;;8.30;76.80;;;;;;5016404;28;20660;-78
2020/12/20 04:55:41;;;;;;;28.20;26.40;;;8.30;76.80;;;;;;5015644;28;20221;-78
2020/12/20 04:58:08;;;;;;;28.75;26.65;;;8.30;76.40;;;;;;5025316;23;20225;-78
2020/12/20 05:00:35;;;;;;;28.90;26.90;;;8.40;76.10;;;;;;5019870;28;20547;-78
2020/12/20 05:03:02;;;;;;;29.20;27.13;;;8.40;75.90;;;;;;5017132;28;20283;-78
2020/12/20 05:05:28;;;;;;;28.45;26.50;;;8.30;76.00;;;;;;5015696;28;20254;-78
2020/12/20 05:07:56;;;;;;;27.20;25.40;;;8.20;76.40;;;;;;5015737;28;20196;-78
2020/12/20 05:10:37;;;;;;;27.65;25.77;;;8.20;77.40;;;;;;5015755;28;20216;-78
2020/12/20 05:13:05;;;;;;;29.02;27.13;;;8.30;77.40;;;;;;5016012;28;20267;-78
2020/12/20 05:15:31;;;;;;;29.35;27.17;;;8.30;77.00;;;;;;5015493;28;20222;-78
2020/12/20 05:18:04;;;;;;;27.83;25.83;;;8.30;76.70;;;;;;5015714;28;20202;-78
2020/12/20 05:20:38;;;;;;;29.63;27.30;;;8.30;76.70;;;;;;5015772;28;20251;-78
2020/12/20 05:23:05;;;;;;;27.73;25.83;;;8.20;77.00;;;;;;5015569;28;20259;-78
2020/12/20 05:25:33;;;;;;;28.17;26.27;;;8.20;77.00;;;;;;5015227;28;20287;-78
2020/12/20 05:28:14;;;;;;;27.50;25.55;;;8.30;77.10;;;;;;5015375;28;20222;-78
2020/12/20 05:30:42;;;;;;;29.20;27.15;;;8.30;77.10;;;;;;5015664;28;20666;-78
2020/12/20 05:33:09;;;;;;;28.40;26.40;;;8.30;77.40;;;;;;5015376;28;20205;-78
2020/12/20 05:35:37;;;;;;;28.65;26.55;;;8.30;77.30;;;;;;5014699;28;20230;-78
2020/12/20 05:38:04;;;;;;;27.70;25.38;;;8.30;77.00;;;;;;5015325;28;20209;-78
2020/12/20 05:40:33;;;;;;;27.50;25.70;;;8.30;77.10;;;;;;5015277;28;20255;-78
2020/12/20 05:43:03;;;;;;;27.90;26.15;;;8.30;76.90;;;;;;5015189;28;20248;-78
2020/12/20 05:45:32;;;;;;;26.70;25.00;;;8.30;77.30;;;;;;5014474;28;20271;-78
2020/12/20 05:47:59;;;;;;;27.13;25.52;;;8.30;77.00;;;;;;5015146;28;20224;-78
2020/12/20 05:50:28;;;;;;;27.02;25.20;;;8.30;77.30;;;;;;5015274;28;20685;-78
2020/12/20 05:53:03;;;;;;;27.38;25.48;;;8.30;76.90;;;;;;5015347;28;20206;-78
2020/12/20 05:55:37;;;;;;;27.10;25.02;;;8.40;76.00;;;;;;5015652;28;20218;-78
2020/12/20 05:58:08;;;;;;;27.38;25.55;;;8.40;75.70;;;;;;5014973;28;20283;-78
2020/12/20 06:00:36;;;;;;;26.80;25.00;;;8.40;75.80;;;;;;5015093;28;20194;-78
2020/12/20 06:03:04;;;;;;;28.20;26.40;;;8.30;77.00;;;;;;5014996;28;20241;-78
2020/12/20 06:05:42;;;;;;;27.67;25.85;;;8.20;77.40;;;;;;5014783;28;20223;-78
2020/12/20 06:08:12;;;;;;;27.15;25.42;;;8.30;76.90;;;;;;5015124;28;20221;-78
2020/12/20 06:10:43;;;;;;;26.95;25.25;;;8.30;76.40;;;;;;5014498;28;20686;-78
2020/12/20 06:13:12;;;;;;;27.80;26.00;;;8.30;75.90;;;;;;5014661;28;20186;-78
2020/12/20 06:15:42;;;;;;;26.95;24.90;;;8.30;75.70;;;;;;5014418;28;20218;-78
2020/12/20 06:18:14;;;;;;;27.20;25.45;;;8.30;76.20;;;;;;5014737;28;20252;-78
2020/12/20 06:20:53;;;;;;;26.75;24.95;;;8.30;75.60;;;;;;5014507;28;20655;-78
2020/12/20 06:23:24;;;;;;;27.20;25.40;;;8.20;82.00;;;;;;5014637;28;20207;-78
2020/12/20 06:25:52;;;;;;;28.23;26.42;;;8.20;79.70;;;;;;5014256;28;20214;-78
2020/12/20 06:28:22;;;;;;;29.58;27.27;;;8.20;76.90;;;;;;5014018;28;20643;-79
2020/12/20 06:30:49;;;;;;;28.02;26.05;;;8.20;75.80;;;;;;5014403;28;20198;-78
2020/12/20 06:33:25;;;;;;;27.00;25.30;;;8.30;75.00;;;;;;5014559;28;20281;-78
2020/12/20 06:35:52;;;;;;;27.42;25.73;;;8.30;75.00;;;;;;5013932;28;20244;-78
2020/12/20 06:38:24;;;;;;;26.77;25.00;;;8.20;75.90;;;;;;5014069;28;20537;-78
2020/12/20 06:40:51;;;;;;;27.50;25.80;;;8.20;75.80;;;;;;5014334;28;20284;-78
2020/12/20 06:43:33;;;;;;;28.45;26.65;;;8.10;76.10;;;;;;5014207;28;20202;-78
2020/12/20 06:46:01;;;;;;;27.00;25.20;;;8.10;75.70;;;;;;5011326;28;20268;-78
2020/12/20 06:48:33;;;;;;;27.30;25.40;;;8.00;75.70;;;;;;5013825;28;20218;-78
2020/12/20 06:51:00;;;;;;;27.25;25.10;;;8.00;75.70;;;;;;5014456;28;20726;-78
2020/12/20 06:53:49;;;;;;;27.73;25.95;;;8.10;75.80;;;;;;5014192;28;20559;-78
2020/12/20 06:56:16;;;;;;;30.17;28.17;;;8.00;80.80;;;;;;5019761;28;20575;-78
2020/12/20 06:58:42;;;;;;;27.35;25.65;;;8.00;78.80;;;;;;5013554;28;20276;-78
2020/12/20 07:01:09;;;;;;;27.83;25.92;;;8.10;76.70;;;;;;5013620;28;20277;-78
2020/12/20 07:03:42;;;;;;;28.67;26.02;;;8.00;76.20;;;;;;5013876;28;20201;-78
2020/12/20 07:06:16;;;;;;;28.50;26.70;;;8.00;76.20;;;;;;5013557;28;20226;-78
2020/12/20 07:08:52;;;;;;;28.13;26.20;;;8.00;76.80;;;;;;5013554;28;20221;-78
2020/12/20 07:11:21;;;;;;;26.67;25.00;;;8.00;77.50;;;;;;5013131;28;20194;-78
2020/12/20 07:13:49;;;;;;;29.27;27.15;;;8.00;77.50;;;;;;5013795;28;20202;-78
2020/12/20 07:16:18;;;;;;;28.58;26.50;;;8.00;77.30;;;;;;5013555;28;20639;-78
2020/12/20 07:18:56;;;;;;;27.38;25.45;;;8.10;75.90;;;;;;5013630;28;20280;-78
2020/12/20 07:21:54;;;;;;;27.30;25.30;;;8.20;75.40;;;;;;5013383;28;20197;-78
2020/12/20 07:24:22;;;;;;;27.30;25.60;;;8.10;75.10;;;;;;5013387;28;20224;-78
2020/12/20 07:26:50;;;;;;;28.00;26.10;;;8.10;76.50;;;;;;5013332;28;20237;-78
2020/12/20 07:29:17;;;;;;;27.77;25.90;;;8.00;78.10;;;;;;5013373;28;20292;-78
2020/12/20 07:31:45;;;;;;;27.02;25.42;;;8.10;76.80;;;;;;5013090;28;20187;-78
2020/12/20 07:34:12;;;;;;;28.08;26.23;;;8.10;75.70;;;;;;5013086;28;20198;-78
2020/12/20 07:36:39;;;;;;;27.45;25.55;;;8.10;75.00;;;;;;5013219;28;20242;-78
2020/12/20 07:39:06;;;;;;;27.90;25.90;;;8.10;75.10;;;;;;5013095;28;20182;-78
2020/12/20 07:41:32;;;;;;;28.25;26.17;;;8.10;75.10;;;;;;5019788;28;20198;-78
2020/12/20 07:44:03;;;;;;;28.83;26.85;;;8.10;75.70;;;;;;5021376;28;20682;-78
2020/12/20 07:46:30;;;;;;;27.52;25.73;;;8.20;75.60;;;;;;5015182;28;20222;-78
2020/12/20 07:49:03;;;;;;;27.35;25.65;;;8.10;76.60;;;;;;5012775;28;20218;-78
2020/12/20 07:51:30;;;;;;;26.70;25.00;;;8.20;74.90;;;;;;5013015;28;20674;-78
2020/12/20 07:53:58;;;;;;;27.63;25.92;;;8.20;74.80;;;;;;5013300;28;20198;-78
2020/12/20 07:56:26;;;;;;;26.95;25.33;;;8.30;74.60;;;;;;5012808;28;20218;-78
2020/12/20 07:58:55;;;;;;;27.85;25.95;;;8.30;74.60;;;;;;5012622;28;20259;-78
2020/12/20 08:01:21;;;;;;;28.10;26.40;;;8.40;74.60;;;;;;5012564;28;20194;-78
2020/12/20 08:03:48;;;;;;;28.00;25.98;;;8.40;74.30;;;;;;5012931;28;20260;-78
2020/12/20 08:06:16;;;;;;;28.50;26.63;;;8.40;76.10;;;;;;5012118;28;20225;-78
2020/12/20 08:08:45;;;;;;;28.48;26.63;;;8.40;74.60;;;;;;5012563;28;20228;-78
2020/12/20 08:11:19;;;;;;;28.38;26.58;;;8.40;74.40;;;;;;5012629;28;20204;-78
2020/12/20 08:13:56;;;;;;;27.65;25.95;;;8.50;73.70;;;;;;5012851;28;20280;-78
2020/12/20 08:16:24;;;;;;;27.92;26.13;;;8.60;73.80;;;;;;5011908;28;20206;-78
2020/12/20 08:18:55;;;;;;;28.75;26.85;;;8.60;74.40;;;;;;5012486;28;20190;-78
2020/12/20 08:21:29;;;;;;;28.23;26.33;;;8.60;75.50;;;;;;5012463;28;20191;-77
2020/12/20 08:23:58;;;;;;;28.73;26.83;;;8.70;74.50;;;;;;5012708;28;20593;-77
2020/12/20 08:26:31;;;;;;;27.80;25.90;;;8.70;74.20;;;;;;5012191;28;20218;-77
2020/12/20 08:28:58;;;;;;;27.08;25.38;;;8.70;73.70;;;;;;5012397;28;20753;-77
2020/12/20 08:31:31;;;;;;;29.30;27.00;;;8.90;73.50;;;;;;5012412;28;20208;-77
2020/12/20 08:33:58;;;;;;;30.85;28.23;;;8.90;73.70;;;;;;5012566;28;20208;-77
2020/12/20 08:36:26;;;;;;;29.63;27.52;;;8.90;74.60;;;;;;5012015;28;20248;-77
2020/12/20 08:38:54;;;;;;;28.90;27.00;;;8.90;74.40;;;;;;5012200;28;20545;-77
2020/12/20 08:41:22;;;;;;;28.95;27.05;;;8.90;73.90;;;;;;5012324;28;20205;-77
2020/12/20 08:44:00;;;;;;;29.58;27.52;;;9.00;73.40;;;;;;5012494;28;20204;-77
2020/12/20 08:46:31;;;;;;;29.63;27.13;;;9.10;72.90;;;;;;5012270;28;20244;-77
2020/12/20 08:49:17;;;;;;;28.90;26.90;;;9.30;72.50;;;;;;5012281;28;20230;-77
2020/12/20 08:51:46;;;;;;;28.63;26.75;;;9.30;72.40;;;;;;5012716;28;20198;-77
2020/12/20 08:54:22;;;;;;;28.40;26.35;;;9.30;72.80;;;;;;5012674;28;20199;-77
2020/12/20 08:56:56;;;;;;;29.50;27.47;;;9.30;74.20;;;;;;5011774;28;20694;-77
2020/12/20 08:59:34;;;;;;;29.17;27.05;;;9.30;73.20;;;;;;4992549;28;20461;-77
2020/12/20 09:02:03;;;;;;;29.37;27.47;;;9.50;72.40;;;;;;4992753;28;20206;-77
2020/12/20 09:04:30;;;;;;;29.70;27.52;;;9.50;71.90;;;;;;4992741;28;20458;-77
2020/12/20 09:07:12;;;;;;;29.53;27.43;;;9.50;72.00;;;;;;4995891;28;20213;-77
2020/12/20 09:09:40;;;;;;;29.97;27.43;;;9.50;73.30;;;;;;5012139;28;20485;-77
2020/12/20 09:12:11;;;;;;;27.60;25.90;;;9.50;74.20;;;;;;5012243;28;20459;-77
2020/12/20 09:14:37;;;;;;;29.10;27.23;;;9.50;72.60;;;;;;5012299;28;20555;-77
2020/12/20 09:17:04;;;;;;;30.77;28.63;;;9.60;71.90;;;;;;5013222;28;20819;-77
2020/12/20 09:19:31;;;;;;;29.10;27.30;;;9.70;71.50;;;;;;5015672;28;20456;-77
2020/12/20 09:21:57;;;;;;;29.00;27.10;;;9.70;71.60;;;;;;5015088;28;20863;-77
2020/12/20 09:24:25;;;;;;;31.70;29.60;;;9.90;71.70;;;;;;5015643;28;20975;-77
2020/12/20 09:26:56;;;;;;;32.33;29.87;;;10.10;70.50;;;;;;5015108;28;20556;-77
2020/12/20 09:29:23;;;;;;;31.27;29.13;;;10.20;70.30;;;;;;5015220;28;20480;-77
2020/12/20 09:31:51;;;;;;;31.40;29.30;;;10.20;69.70;;;;;;5015254;28;20456;-77
2020/12/20 09:34:17;;;;;;;31.37;29.27;;;10.50;69.10;;;;;;5015110;28;20452;-77
2020/12/20 09:36:44;;;;;;;30.67;28.77;;;10.40;69.20;;;;;;5014749;28;20481;-77
2020/12/20 09:39:12;;;;;;;30.90;28.70;;;10.50;68.80;;;;;;5015432;28;20540;-77
2020/12/20 09:41:39;;;;;;;31.23;29.23;;;10.50;71.00;;;;;;5015065;28;20481;-77
2020/12/20 09:44:05;;;;;;;31.80;29.60;;;10.50;70.10;;;;;;5014668;28;20954;-77
2020/12/20 09:46:34;;;;;;;31.23;29.23;;;10.60;70.60;;;;;;5014943;28;20528;-77
2020/12/20 09:49:01;;;;;;;30.27;28.27;;;10.60;69.20;;;;;;5014830;28;20908;-77
2020/12/20 09:51:30;;;;;;;29.70;27.80;;;10.70;68.90;;;;;;5015037;28;20457;-77
2020/12/20 09:53:57;;;;;;;28.60;26.60;;;10.70;68.60;;;;;;5014913;28;20455;-77
2020/12/20 09:56:23;;;;;;;30.00;27.90;;;10.80;69.40;;;;;;5014857;28;20499;-77
2020/12/20 09:58:50;;;;;;;31.50;29.10;;;10.80;69.00;;;;;;5014886;28;20465;-77
2020/12/20 10:01:17;;;;;;;29.13;27.23;;;10.80;70.80;;;;;;5014925;28;20452;-77
2020/12/20 10:03:44;;;;;;;29.83;27.93;;;10.80;69.60;;;;;;5014752;28;20482;-77
2020/12/20 10:06:10;;;;;;;29.90;27.80;;;10.90;69.10;;;;;;5014523;28;20567;-77
2020/12/20 10:08:37;;;;;;;29.63;27.83;;;10.90;68.50;;;;;;5014314;28;20985;-77
2020/12/20 10:11:04;;;;;;;29.83;27.93;;;11.10;68.40;;;;;;5014417;28;20791;-77
2020/12/20 10:13:30;;;;;;;29.23;27.23;;;11.20;67.50;;;;;;5014772;28;20453;-77
2020/12/20 10:15:57;;;;;;;31.13;29.10;;;11.20;67.20;;;;;;5014458;28;21016;-77
2020/12/20 10:18:24;;;;;;;28.97;27.10;;;11.20;67.30;;;;;;5014243;28;20445;-77
2020/12/20 10:20:50;;;;;;;31.10;29.10;;;11.20;67.40;;;;;;5013957;28;20450;-77
2020/12/20 10:23:17;;;;;;;30.97;28.87;;;11.10;67.60;;;;;;5014524;28;20452;-77
2020/12/20 10:25:43;;;;;;;30.27;28.03;;;11.10;67.90;;;;;;5014284;28;20508;-77
2020/12/20 10:28:10;;;;;;;31.53;29.43;;;11.10;67.90;;;;;;5013279;28;20449;-77
2020/12/20 10:30:37;;;;;;;33.07;31.07;;;11.10;68.00;;;;;;5014388;28;20449;-77
2020/12/20 10:33:04;;;;;;;30.50;28.53;;;11.00;68.40;;;;;;5014276;28;20459;-77
2020/12/20 10:35:30;;;;;;;29.73;27.83;;;11.00;68.50;;;;;;5013697;28;20532;-77
2020/12/20 10:37:57;;;;;;;30.27;28.20;;;11.00;68.70;;;;;;5014305;28;20490;-77
2020/12/20 10:40:25;;;;;;;30.43;28.23;;;11.20;68.40;;;;;;5013647;28;20449;-77
2020/12/20 10:42:51;;;;;;;31.93;29.43;;;11.20;68.20;;;;;;5014021;28;20444;-77
2020/12/20 10:45:18;;;;;;;30.87;28.40;;;11.20;68.20;;;;;;5013900;28;20472;-77
2020/12/20 10:47:44;;;;;;;32.53;30.13;;;11.20;68.50;;;;;;5013708;28;20461;-77
2020/12/20 10:50:12;;;;;;;30.27;28.17;;;11.10;68.60;;;;;;5014435;28;20581;-77
2020/12/20 10:52:38;;;;;;;31.40;29.00;;;11.10;68.60;;;;;;4995220;28;20490;-77
2020/12/20 10:55:05;;;;;;;32.50;30.07;;;11.10;69.10;;;;;;4994638;28;20458;-77
2020/12/20 10:57:34;;;;;;;30.00;28.10;;;11.20;68.70;;;;;;4994130;28;20508;-77
2020/12/20 11:00:00;;;;;;;30.40;28.07;;;11.30;68.70;;;;;;4994002;28;20468;-77
2020/12/20 11:02:26;;;;;;;32.50;29.90;;;11.30;68.50;;;;;;4997117;28;20457;-77
2020/12/20 11:04:52;;;;;;;31.23;28.90;;;11.30;68.50;;;;;;5013729;28;20866;-77
2020/12/20 11:07:20;;;;;;;29.87;27.60;;;11.30;68.60;;;;;;5013074;28;20475;-77
2020/12/20 11:09:46;;;;;;;31.80;29.10;;;11.40;68.70;;;;;;5013488;28;20993;-77
2020/12/20 11:12:12;;;;;;;32.37;30.00;;;11.50;68.70;;;;;;5013409;28;20461;-77
2020/12/20 11:14:39;;;;;;;31.00;28.90;;;11.60;68.50;;;;;;5013640;28;20453;-77
2020/12/20 11:17:06;;;;;;;32.00;29.83;;;11.60;68.30;;;;;;5012976;28;20469;-77
2020/12/20 11:19:32;;;;;;;33.47;30.70;;;11.70;68.30;;;;;;5013497;28;20938;-77
2020/12/20 11:21:58;;;;;;;30.97;28.87;;;11.70;70.50;;;;;;5013412;28;20970;-77
2020/12/20 11:24:26;;;;;;;32.00;29.60;;;11.90;68.60;;;;;;5013245;28;20502;-77
2020/12/20 11:26:54;;;;;;;32.47;30.17;;;12.10;67.70;;;;;;5013188;28;20473;-77
2020/12/20 11:29:20;;;;;;;32.67;30.37;;;12.20;67.50;;;;;;5012773;28;20516;-77
2020/12/20 11:31:47;;;;;;;32.93;30.77;;;12.10;67.60;;;;;;5013256;28;20456;-78
2020/12/20 11:34:14;;;;;;;31.27;29.03;;;12.30;67.50;;;;;;5013237;28;20458;-78
2020/12/20 11:36:42;;;;;;;32.20;29.63;;;12.30;67.10;;;;;;5012621;28;20520;-78
2020/12/20 11:39:09;;;;;;;31.80;29.50;;;12.40;67.10;;;;;;5012884;28;20453;-77
2020/12/20 11:41:37;;;;;;;33.60;31.40;;;12.40;69.60;;;;;;5012811;28;20452;-77
2020/12/20 11:44:05;;;;;;;31.57;29.27;;;12.50;67.50;;;;;;5013211;28;20456;-77
2020/12/20 11:46:32;;;;;;;36.47;33.67;;;12.40;67.30;;;;;;5012857;28;20602;-77
2020/12/20 11:48:58;;;;;;;35.43;32.83;;;12.50;67.20;;;;;;5012383;28;20484;-78
2020/12/20 11:51:26;;;;;;;33.90;31.60;;;12.70;68.00;;;;;;5012847;28;20460;-77
2020/12/20 11:53:54;;;;;;;32.47;30.17;;;12.80;68.20;;;;;;5012852;28;20455;-78
2020/12/20 11:56:20;;;;;;;32.47;30.37;;;12.90;68.20;;;;;;5012552;28;20477;-77
2020/12/20 11:58:47;;;;;;;30.27;28.13;;;13.00;71.20;;;;;;5012806;28;20452;-77
2020/12/20 12:01:21;;;;;;;33.27;30.97;;;13.20;67.70;;;;;;5012678;28;20465;-78
2020/12/20 12:03:48;;;;;;;33.93;31.40;;;13.40;63.80;;;;;;5013112;28;20457;-78
2020/12/20 12:06:14;;;;;;;34.00;31.50;;;13.30;63.80;;;;;;5012785;28;20473;-78
2020/12/20 12:08:41;;;;;;;31.67;29.40;;;13.30;62.90;;;;;;5012716;28;20480;-78
2020/12/20 12:11:07;;;;;;;32.87;30.67;;;13.20;63.30;;;;;;5012741;28;20482;-78
2020/12/20 12:13:34;;;;;;;33.37;31.00;;;13.20;62.90;;;;;;5012792;28;20456;-78
2020/12/20 12:16:01;;;;;;;33.47;31.37;;;13.10;63.20;;;;;;5012521;28;20480;-77
2020/12/20 12:18:28;;;;;;;32.30;30.10;;;12.80;63.20;;;;;;5012663;28;21020;-77
2020/12/20 12:20:54;;;;;;;33.93;31.53;;;12.60;63.90;;;;;;5012738;28;20544;-77
2020/12/20 12:23:20;;;;;;;33.90;31.30;;;12.30;64.70;;;;;;5012437;28;20548;-77
2020/12/20 12:25:47;;;;;;;32.47;30.27;;;12.40;66.50;;;;;;5012368;28;20562;-77
2020/12/20 12:28:13;;;;;;;30.83;28.83;;;12.70;64.20;;;;;;5012722;28;20457;-77
2020/12/20 12:30:40;;;;;;;32.90;30.50;;;12.80;63.20;;;;;;5012549;28;20484;-77
2020/12/20 12:33:07;;;;;;;34.07;31.70;;;12.60;63.50;;;;;;5012427;28;20453;-77
2020/12/20 12:35:33;;;;;;;33.83;30.97;;;12.50;64.10;;;;;;5012057;28;20816;-77
2020/12/20 12:37:59;;;;;;;31.43;29.23;;;12.40;64.20;;;;;;5012316;28;20946;-77
2020/12/20 12:40:26;;;;;;;31.83;29.73;;;12.40;64.80;;;;;;5011978;28;20445;-77